Weather in selectable METAR weather stations Station search

1) Select the Continent / Group:

[Europe]  [Asia]  [Africa]  [North America]  [South America]  
[Central America and Caribbean]  [Oceania]  [Antarctica]  
2) Select the Weather station (City):


METAR = EFHK 200150Z 03009KT 9999 BKN030 06/02 Q1027 NOSIG

STATIONEFHK
NAMEHelsinki/Vantaa Arpt, UU, FI
OBSERVED20.09.2021 04:50 (20.09.2021 01:50 UTC), 3 min ago
TEMPERATURE6.0°C ( 43°F)
WINDCHILL2.8 °C (37 °F)
WINDNNE (30 degrees) at 10 MPH (9 knots; 4.6 m/s)
HUMIDITY75%
PRESSURE1026.8 hPa
Click here to search the weather station or to give the station identifier
(four-character ICAO Location Indicator) for weather data.